createdAt,value
2018-09-07T00:00:59.233Z,19.00
2018-09-07T00:03:28.279Z,18.90
2018-09-07T00:05:56.960Z,18.90
2018-09-07T00:08:25.749Z,18.90
2018-09-07T00:10:54.114Z,18.90
2018-09-07T00:13:22.376Z,18.90
2018-09-07T00:15:50.591Z,18.90
2018-09-07T00:18:19.179Z,18.90
2018-09-07T00:20:47.964Z,18.90
2018-09-07T00:23:16.228Z,18.80
2018-09-07T00:25:44.484Z,18.90
2018-09-07T00:28:12.813Z,18.90
2018-09-07T00:30:41.164Z,18.80
2018-09-07T00:33:09.413Z,18.90
2018-09-07T00:35:37.637Z,18.90
2018-09-07T00:38:06.201Z,18.80
2018-09-07T00:40:34.463Z,18.80
2018-09-07T00:43:02.672Z,18.80
2018-09-07T00:45:31.122Z,18.80
2018-09-07T00:47:59.366Z,18.80
2018-09-07T00:50:27.640Z,18.70
2018-09-07T00:52:55.945Z,18.70
2018-09-07T00:55:24.241Z,18.70
2018-09-07T00:57:52.601Z,18.70
2018-09-07T01:00:21.728Z,18.60
2018-09-07T01:02:50.092Z,18.60
2018-09-07T01:05:18.345Z,18.50
2018-09-07T01:07:46.625Z,18.50
2018-09-07T01:10:14.917Z,18.60
2018-09-07T01:12:43.157Z,18.60
2018-09-07T01:15:11.469Z,18.60
2018-09-07T01:17:39.750Z,18.60
2018-09-07T01:20:08.120Z,18.60
2018-09-07T01:22:36.388Z,18.70
2018-09-07T01:25:04.634Z,18.70
2018-09-07T01:27:32.969Z,18.70
2018-09-07T01:30:01.325Z,18.70
2018-09-07T01:32:29.677Z,18.70
2018-09-07T01:34:57.924Z,18.70
2018-09-07T01:37:31.686Z,18.70
2018-09-07T01:40:00.001Z,18.70
2018-09-07T01:42:28.287Z,18.70
2018-09-07T01:44:56.567Z,18.60
2018-09-07T01:47:24.761Z,18.60
2018-09-07T01:49:53.070Z,18.70
2018-09-07T01:52:21.289Z,18.70
2018-09-07T01:54:49.517Z,18.80
2018-09-07T01:57:17.753Z,18.80
2018-09-07T01:59:46.056Z,18.80
2018-09-07T02:02:14.239Z,18.80
2018-09-07T02:04:42.639Z,18.70
2018-09-07T02:07:10.862Z,18.80
2018-09-07T02:09:39.061Z,18.70
2018-09-07T02:12:07.422Z,18.70
2018-09-07T02:14:35.687Z,18.70
2018-09-07T02:17:03.873Z,18.80
2018-09-07T02:19:32.213Z,18.60
2018-09-07T02:22:00.500Z,18.60
2018-09-07T02:24:28.764Z,18.60
2018-09-07T02:26:57.044Z,18.60
2018-09-07T02:29:25.341Z,18.60
2018-09-07T02:31:53.645Z,18.70
2018-09-07T02:34:21.891Z,18.60
2018-09-07T02:36:50.433Z,18.60
2018-09-07T02:39:18.697Z,18.60
2018-09-07T02:41:46.983Z,18.50
2018-09-07T02:44:15.245Z,18.50
2018-09-07T02:46:43.581Z,18.50
2018-09-07T02:49:11.889Z,18.50
2018-09-07T02:51:40.143Z,18.50
2018-09-07T02:54:08.438Z,18.50
2018-09-07T02:56:36.675Z,18.40
2018-09-07T02:59:04.957Z,18.40
2018-09-07T03:01:33.148Z,18.40
2018-09-07T03:04:01.513Z,18.40
2018-09-07T03:06:29.736Z,18.40
2018-09-07T03:08:57.978Z,18.40
2018-09-07T03:11:26.258Z,18.40
2018-09-07T03:13:54.458Z,18.40
2018-09-07T03:16:22.738Z,18.40
2018-09-07T03:18:51.007Z,18.40
2018-09-07T03:21:19.318Z,18.50
2018-09-07T03:23:47.546Z,18.40
2018-09-07T03:26:15.828Z,18.40
2018-09-07T03:28:44.074Z,18.40
2018-09-07T03:31:12.322Z,18.40
2018-09-07T03:33:40.542Z,18.30
2018-09-07T03:36:08.818Z,18.30
2018-09-07T03:38:36.997Z,18.30
2018-09-07T03:41:05.258Z,18.30
2018-09-07T03:43:33.461Z,18.20
2018-09-07T03:46:01.693Z,18.20
2018-09-07T03:48:29.906Z,18.20
2018-09-07T03:50:58.232Z,18.20
2018-09-07T03:53:26.460Z,18.30
2018-09-07T03:55:55.005Z,18.30
2018-09-07T03:58:23.341Z,18.40
2018-09-07T04:00:51.581Z,18.40
2018-09-07T04:03:19.791Z,18.40
2018-09-07T04:05:48.037Z,18.30
2018-09-07T04:08:17.365Z,18.30
2018-09-07T04:10:45.732Z,18.30
2018-09-07T04:13:14.078Z,18.30
2018-09-07T04:15:42.327Z,18.30
2018-09-07T04:18:10.604Z,18.40
2018-09-07T04:20:38.880Z,18.40
2018-09-07T04:23:07.260Z,18.40
2018-09-07T04:25:35.516Z,18.40
2018-09-07T04:28:03.861Z,18.50
2018-09-07T04:30:32.092Z,18.50
2018-09-07T04:33:00.396Z,18.50
2018-09-07T04:35:28.626Z,18.50
2018-09-07T04:37:56.921Z,18.50
2018-09-07T04:40:25.153Z,18.50
2018-09-07T04:42:53.591Z,18.50
2018-09-07T04:45:21.797Z,18.50
2018-09-07T04:47:50.077Z,18.60
2018-09-07T04:50:18.342Z,18.60
2018-09-07T04:52:46.537Z,18.60
2018-09-07T04:55:14.807Z,18.60
2018-09-07T04:57:43.278Z,18.60
2018-09-07T05:00:11.499Z,18.70
2018-09-07T05:02:39.715Z,18.70
2018-09-07T05:05:08.045Z,18.70
2018-09-07T05:07:36.281Z,18.70
2018-09-07T05:10:04.613Z,18.70
2018-09-07T05:12:32.869Z,18.60
2018-09-07T05:15:01.104Z,18.50
2018-09-07T05:17:29.353Z,18.50
2018-09-07T05:19:57.616Z,18.40
2018-09-07T05:22:25.911Z,18.40
2018-09-07T05:24:54.130Z,18.50
2018-09-07T05:27:22.558Z,18.40
2018-09-07T05:29:50.845Z,18.50
2018-09-07T05:32:19.078Z,18.60
2018-09-07T05:34:47.457Z,18.60
2018-09-07T05:37:15.767Z,18.60
2018-09-07T05:39:45.391Z,18.70
2018-09-07T05:42:14.057Z,18.70
2018-09-07T05:44:42.517Z,18.70
2018-09-07T05:47:10.843Z,18.80
2018-09-07T05:49:39.286Z,18.70
2018-09-07T05:52:07.665Z,18.80
2018-09-07T05:54:36.074Z,18.80
2018-09-07T05:57:04.537Z,18.90
2018-09-07T05:59:32.952Z,18.80
2018-09-07T06:02:01.132Z,18.80
2018-09-07T06:04:29.800Z,18.90
2018-09-07T06:06:57.977Z,18.80
2018-09-07T06:09:26.216Z,18.80
2018-09-07T06:11:54.564Z,18.80
2018-09-07T06:14:22.861Z,18.90
2018-09-07T06:16:51.087Z,18.90
2018-09-07T06:19:19.450Z,18.90
2018-09-07T06:21:47.679Z,18.90
2018-09-07T06:24:15.897Z,18.90
2018-09-07T06:26:44.163Z,19.00
2018-09-07T06:29:12.654Z,19.00
2018-09-07T06:31:40.837Z,19.00
2018-09-07T06:34:09.508Z,19.10
2018-09-07T06:36:37.753Z,19.20
2018-09-07T06:39:07.975Z,19.20
2018-09-07T06:41:36.252Z,19.30
2018-09-07T06:44:04.477Z,19.30
2018-09-07T06:46:32.788Z,19.30
2018-09-07T06:49:01.089Z,19.40
2018-09-07T06:51:29.274Z,19.40
2018-09-07T06:53:57.640Z,19.40
2018-09-07T06:56:26.059Z,19.40
2018-09-07T06:58:54.326Z,19.50
2018-09-07T07:01:22.545Z,19.50
2018-09-07T07:03:50.766Z,19.60
2018-09-07T07:06:19.148Z,19.80
2018-09-07T07:08:47.393Z,19.90
2018-09-07T07:11:15.802Z,19.90
2018-09-07T07:13:44.091Z,20.00
2018-09-07T07:16:12.364Z,20.10
2018-09-07T07:18:40.636Z,20.20
2018-09-07T07:21:08.890Z,20.50
2018-09-07T07:23:37.154Z,20.90
2018-09-07T07:26:05.373Z,21.30
2018-09-07T07:28:33.703Z,21.60
2018-09-07T07:31:02.278Z,21.70
2018-09-07T07:33:30.530Z,21.70
2018-09-07T07:35:58.772Z,21.60
2018-09-07T07:38:27.140Z,21.50
2018-09-07T07:40:55.351Z,21.50
2018-09-07T07:43:23.650Z,21.60
2018-09-07T07:45:51.878Z,21.60
2018-09-07T07:48:20.180Z,21.50
2018-09-07T07:50:48.514Z,21.40
2018-09-07T07:53:16.761Z,21.50
2018-09-07T07:55:45.065Z,21.40
2018-09-07T07:58:13.290Z,21.30
2018-09-07T08:00:41.657Z,21.40
2018-09-07T08:03:09.997Z,21.40
2018-09-07T08:05:38.244Z,21.20
2018-09-07T08:08:06.541Z,21.20
2018-09-07T08:10:34.849Z,21.20
2018-09-07T08:13:03.084Z,21.10
2018-09-07T08:15:31.493Z,21.10
2018-09-07T08:17:59.788Z,21.00
2018-09-07T08:20:28.092Z,20.90
2018-09-07T08:22:56.301Z,20.90
2018-09-07T08:25:24.614Z,20.80
2018-09-07T08:27:52.878Z,21.00
2018-09-07T08:30:21.205Z,21.30
2018-09-07T08:32:49.783Z,21.70
2018-09-07T08:35:17.899Z,21.90
2018-09-07T08:37:46.198Z,22.20
2018-09-07T08:40:14.629Z,22.50
2018-09-07T08:42:42.837Z,22.70
2018-09-07T08:45:11.180Z,22.80
2018-09-07T08:47:39.510Z,22.60
2018-09-07T08:50:14.571Z,22.30
2018-09-07T08:52:42.847Z,22.10
2018-09-07T08:55:11.245Z,21.80
2018-09-07T08:57:39.591Z,21.70
2018-09-07T09:00:07.839Z,21.50
2018-09-07T09:02:36.046Z,21.60
2018-09-07T09:05:04.985Z,21.90
2018-09-07T09:07:33.497Z,22.10
2018-09-07T09:10:01.762Z,22.40
2018-09-07T09:12:30.037Z,22.80
2018-09-07T09:14:58.286Z,23.20
2018-09-07T09:17:26.637Z,23.60
2018-09-07T09:19:54.865Z,24.00
2018-09-07T09:22:23.070Z,24.00
2018-09-07T09:24:51.278Z,24.20
2018-09-07T09:27:19.532Z,24.40
2018-09-07T09:29:47.920Z,24.60
2018-09-07T09:32:16.149Z,24.80
2018-09-07T09:34:44.393Z,24.80
2018-09-07T09:37:12.646Z,24.90
2018-09-07T09:39:40.890Z,25.00
2018-09-07T09:42:09.091Z,25.00
2018-09-07T09:44:37.281Z,25.10
2018-09-07T09:47:05.506Z,25.30
2018-09-07T09:49:33.744Z,25.40
2018-09-07T09:52:01.933Z,25.30
2018-09-07T09:54:30.180Z,25.20
2018-09-07T09:56:58.444Z,25.20
2018-09-07T09:59:26.619Z,24.90
2018-09-07T10:02:00.230Z,24.90
2018-09-07T10:04:33.905Z,24.90
2018-09-07T10:07:02.213Z,25.00
2018-09-07T10:09:30.386Z,24.80
2018-09-07T10:11:58.618Z,24.70
2018-09-07T10:14:27.302Z,24.70
2018-09-07T10:16:55.530Z,24.90
2018-09-07T10:19:23.849Z,25.00
2018-09-07T10:21:51.993Z,25.20
2018-09-07T10:24:20.181Z,25.30
2018-09-07T10:26:48.480Z,25.10
2018-09-07T10:29:16.839Z,24.90
2018-09-07T10:31:45.130Z,25.00
2018-09-07T10:34:13.371Z,25.20
2018-09-07T10:36:41.610Z,25.20
2018-09-07T10:39:10.657Z,25.10
2018-09-07T10:41:38.930Z,25.40
2018-09-07T10:44:07.207Z,25.70
2018-09-07T10:46:35.478Z,25.70
2018-09-07T10:49:03.689Z,25.80
2018-09-07T10:51:31.984Z,25.90
2018-09-07T10:54:00.281Z,26.00
2018-09-07T10:56:28.488Z,25.80
2018-09-07T10:58:57.291Z,25.90
2018-09-07T11:01:25.862Z,25.90
2018-09-07T11:03:54.490Z,25.90
2018-09-07T11:06:22.830Z,25.90
2018-09-07T11:08:51.102Z,26.00
2018-09-07T11:11:19.349Z,25.80
2018-09-07T11:13:47.569Z,25.60
2018-09-07T11:16:15.886Z,25.20
2018-09-07T11:18:44.112Z,24.80
2018-09-07T11:21:12.353Z,24.40
2018-09-07T11:23:40.545Z,24.00
2018-09-07T11:26:08.959Z,23.90
2018-09-07T11:28:37.169Z,23.60
2018-09-07T11:31:05.478Z,23.40
2018-09-07T11:33:33.865Z,23.20
2018-09-07T11:36:02.087Z,22.90
2018-09-07T11:38:30.289Z,22.60
2018-09-07T11:40:58.514Z,22.40
2018-09-07T11:43:27.357Z,22.30
2018-09-07T11:45:56.670Z,22.20
2018-09-07T11:48:24.906Z,22.00
2018-09-07T11:50:53.109Z,22.10
2018-09-07T11:53:21.422Z,22.20
2018-09-07T11:55:49.663Z,22.30
2018-09-07T11:58:18.618Z,22.30
2018-09-07T12:00:46.817Z,22.30
2018-09-07T12:03:15.165Z,22.40
2018-09-07T12:05:43.483Z,22.40
2018-09-07T12:08:11.893Z,22.30
2018-09-07T12:10:40.214Z,22.20
2018-09-07T12:13:08.597Z,22.00
2018-09-07T12:15:36.701Z,21.90
2018-09-07T12:18:04.892Z,21.90
2018-09-07T12:20:33.118Z,21.80
2018-09-07T12:23:01.514Z,21.70
2018-09-07T12:25:29.803Z,21.70
2018-09-07T12:27:58.050Z,21.70
2018-09-07T12:30:26.307Z,21.70
2018-09-07T12:32:54.530Z,21.70
2018-09-07T12:35:24.839Z,21.70
2018-09-07T12:37:53.128Z,21.70
2018-09-07T12:40:21.397Z,21.70
2018-09-07T12:42:49.761Z,21.70
2018-09-07T12:45:18.930Z,21.70
2018-09-07T12:47:48.965Z,21.60
2018-09-07T12:50:17.268Z,21.60
2018-09-07T12:52:45.527Z,21.60
2018-09-07T12:55:13.941Z,21.50
2018-09-07T12:57:42.173Z,21.50
2018-09-07T13:00:10.386Z,21.50
2018-09-07T13:02:38.598Z,21.50
2018-09-07T13:05:06.805Z,21.60
2018-09-07T13:07:35.465Z,21.70
2018-09-07T13:10:03.666Z,21.90
2018-09-07T13:12:31.881Z,22.00
2018-09-07T13:15:00.194Z,22.20
2018-09-07T13:17:28.419Z,22.40
2018-09-07T13:19:56.779Z,22.50
2018-09-07T13:22:24.966Z,22.40
2018-09-07T13:24:53.293Z,22.40
2018-09-07T13:27:21.517Z,22.30
2018-09-07T13:29:49.751Z,22.30
2018-09-07T13:32:18.017Z,22.30
2018-09-07T13:34:46.265Z,22.40
2018-09-07T13:37:14.476Z,22.40
2018-09-07T13:39:42.693Z,22.20
2018-09-07T13:42:10.878Z,22.20
2018-09-07T13:44:39.192Z,22.30
2018-09-07T13:47:07.525Z,22.30
2018-09-07T13:49:35.771Z,22.40
2018-09-07T13:52:04.033Z,22.40
2018-09-07T13:54:32.298Z,22.40
2018-09-07T13:57:00.711Z,22.40
2018-09-07T13:59:28.961Z,22.50
2018-09-07T14:01:57.165Z,22.50
2018-09-07T14:04:25.361Z,22.50
2018-09-07T14:06:53.710Z,22.40
2018-09-07T14:09:21.972Z,22.50
2018-09-07T14:11:50.276Z,22.40
2018-09-07T14:14:18.507Z,22.50
2018-09-07T14:16:46.829Z,22.60
2018-09-07T14:19:15.113Z,22.70
2018-09-07T14:21:43.315Z,22.70
2018-09-07T14:24:11.563Z,22.80
2018-09-07T14:26:39.745Z,22.70
2018-09-07T14:29:07.993Z,22.50
2018-09-07T14:31:36.233Z,22.50
2018-09-07T14:34:04.459Z,22.50
2018-09-07T14:36:32.719Z,22.60
2018-09-07T14:39:01.024Z,22.70
2018-09-07T14:41:29.336Z,22.80
2018-09-07T14:43:57.694Z,22.80
2018-09-07T14:46:25.914Z,22.70
2018-09-07T14:48:54.191Z,22.60
2018-09-07T14:51:22.359Z,22.50
2018-09-07T14:53:50.612Z,22.50
2018-09-07T14:56:18.855Z,22.50
2018-09-07T14:58:47.118Z,22.50
2018-09-07T15:01:15.316Z,22.50
2018-09-07T15:03:43.538Z,22.50
2018-09-07T15:06:11.831Z,22.50
2018-09-07T15:08:40.102Z,22.60
2018-09-07T15:11:08.313Z,22.50
2018-09-07T15:13:36.753Z,22.50
2018-09-07T15:16:05.957Z,22.50
2018-09-07T15:18:34.174Z,22.50
2018-09-07T15:21:02.421Z,22.50
2018-09-07T15:23:30.755Z,22.50
2018-09-07T15:25:59.021Z,22.50
2018-09-07T15:28:27.242Z,22.50
2018-09-07T15:30:55.490Z,22.40
2018-09-07T15:33:23.781Z,22.30
2018-09-07T15:35:52.082Z,22.30
2018-09-07T15:38:20.460Z,22.20
2018-09-07T15:40:48.930Z,22.20
2018-09-07T15:43:17.274Z,22.10
2018-09-07T15:45:45.492Z,22.00
2018-09-07T15:48:13.697Z,21.80
2018-09-07T15:50:41.916Z,21.70
2018-09-07T15:53:10.177Z,21.60
2018-09-07T15:55:38.502Z,21.50
2018-09-07T15:58:06.779Z,21.40
2018-09-07T16:00:34.991Z,21.20
2018-09-07T16:03:03.220Z,21.10
2018-09-07T16:05:31.499Z,21.00
2018-09-07T16:07:59.849Z,21.00
2018-09-07T16:10:28.150Z,20.90
2018-09-07T16:12:56.510Z,20.90
2018-09-07T16:15:24.930Z,20.80
2018-09-07T16:17:53.182Z,20.50
2018-09-07T16:20:21.465Z,20.30
2018-09-07T16:22:49.746Z,20.20
2018-09-07T16:25:18.034Z,20.10
2018-09-07T16:27:46.270Z,20.00
2018-09-07T16:30:14.514Z,20.00
2018-09-07T16:32:42.795Z,20.00
2018-09-07T16:35:11.083Z,19.90
2018-09-07T16:37:39.353Z,20.00
2018-09-07T16:40:07.869Z,19.90
2018-09-07T16:42:36.092Z,19.90
2018-09-07T16:45:04.352Z,19.90
2018-09-07T16:47:32.594Z,19.90
2018-09-07T16:50:00.843Z,19.90
2018-09-07T16:52:29.103Z,19.90
2018-09-07T16:54:58.130Z,20.00
2018-09-07T16:57:26.397Z,20.00
2018-09-07T16:59:55.425Z,20.10
2018-09-07T17:02:30.221Z,20.10
2018-09-07T17:04:58.448Z,20.20
2018-09-07T17:07:26.733Z,20.20
2018-09-07T17:09:54.934Z,20.20
2018-09-07T17:12:23.189Z,20.30
2018-09-07T17:14:51.325Z,20.30
2018-09-07T17:17:19.541Z,20.40
2018-09-07T17:19:47.770Z,20.40
2018-09-07T17:22:16.038Z,20.30
2018-09-07T17:24:44.633Z,20.20
2018-09-07T17:27:12.824Z,20.10
2018-09-07T17:29:41.138Z,20.10
2018-09-07T17:32:09.343Z,20.10
2018-09-07T17:34:37.609Z,20.10
2018-09-07T17:37:06.161Z,20.10
2018-09-07T17:39:34.375Z,20.20
2018-09-07T17:42:02.659Z,20.10
2018-09-07T17:44:31.053Z,20.10
2018-09-07T17:46:59.282Z,20.10
2018-09-07T17:49:27.504Z,20.10
2018-09-07T17:51:55.778Z,20.10
2018-09-07T17:54:24.097Z,20.10
2018-09-07T17:56:52.417Z,20.20
2018-09-07T17:59:20.745Z,20.10
2018-09-07T18:01:49.070Z,20.10
2018-09-07T18:04:17.262Z,20.10
2018-09-07T18:06:45.542Z,20.10
2018-09-07T18:09:14.662Z,20.00
2018-09-07T18:11:42.914Z,20.00
2018-09-07T18:14:11.179Z,20.00
2018-09-07T18:16:39.517Z,19.90
2018-09-07T18:19:07.721Z,20.00
2018-09-07T18:21:35.961Z,19.90
2018-09-07T18:24:04.246Z,20.00
2018-09-07T18:26:32.530Z,19.90
2018-09-07T18:29:00.806Z,19.90
2018-09-07T18:31:29.000Z,19.90
2018-09-07T18:33:57.238Z,19.90
2018-09-07T18:36:25.522Z,19.90
2018-09-07T18:38:53.784Z,19.90
2018-09-07T18:41:22.018Z,19.80
2018-09-07T18:43:50.329Z,19.70
2018-09-07T18:46:18.582Z,19.70
2018-09-07T18:48:46.813Z,19.70
2018-09-07T18:51:15.178Z,19.70
2018-09-07T18:53:43.435Z,19.70
2018-09-07T18:56:11.695Z,19.70
2018-09-07T18:58:40.122Z,19.70
2018-09-07T19:01:08.341Z,19.70
2018-09-07T19:03:36.554Z,19.70
2018-09-07T19:06:04.762Z,19.70
2018-09-07T19:08:33.108Z,19.70
2018-09-07T19:11:01.279Z,19.70
2018-09-07T19:13:29.467Z,19.70
2018-09-07T19:15:57.757Z,19.60
2018-09-07T19:18:25.933Z,19.60
2018-09-07T19:20:54.170Z,19.50
2018-09-07T19:23:22.401Z,19.50
2018-09-07T19:25:50.662Z,19.50
2018-09-07T19:28:18.939Z,19.50
2018-09-07T19:30:47.174Z,19.40
2018-09-07T19:33:15.432Z,19.40
2018-09-07T19:35:43.822Z,19.40
2018-09-07T19:38:12.141Z,19.30
2018-09-07T19:40:40.337Z,19.30
2018-09-07T19:43:08.538Z,19.30
2018-09-07T19:45:36.721Z,19.20
2018-09-07T19:48:04.989Z,19.20
2018-09-07T19:50:33.295Z,19.10
2018-09-07T19:53:01.537Z,19.00
2018-09-07T19:55:29.837Z,19.00
2018-09-07T19:57:58.042Z,18.90
2018-09-07T20:00:26.308Z,18.90
2018-09-07T20:02:54.579Z,18.90
2018-09-07T20:05:22.820Z,18.80
2018-09-07T20:07:51.109Z,18.80
2018-09-07T20:10:19.285Z,18.80
2018-09-07T20:12:47.850Z,18.70
2018-09-07T20:15:16.210Z,18.70
2018-09-07T20:17:44.460Z,18.60
2018-09-07T20:20:12.713Z,18.60
2018-09-07T20:22:40.986Z,18.60
2018-09-07T20:25:09.304Z,18.50
2018-09-07T20:27:37.478Z,18.50
2018-09-07T20:30:06.180Z,18.50
2018-09-07T20:32:34.513Z,18.50
2018-09-07T20:35:03.854Z,18.40
2018-09-07T20:37:32.118Z,18.40
2018-09-07T20:40:00.426Z,18.40
2018-09-07T20:42:28.666Z,18.30
2018-09-07T20:44:57.994Z,18.30
2018-09-07T20:47:26.416Z,18.30
2018-09-07T20:49:54.797Z,18.20
2018-09-07T20:52:23.045Z,18.10
2018-09-07T20:54:51.246Z,18.20
2018-09-07T20:57:19.455Z,18.10
2018-09-07T20:59:47.745Z,18.10
2018-09-07T21:02:16.077Z,18.10
2018-09-07T21:04:44.318Z,18.10
2018-09-07T21:07:12.505Z,18.10
2018-09-07T21:09:40.770Z,18.10
2018-09-07T21:12:09.020Z,18.10
2018-09-07T21:14:37.329Z,18.10
2018-09-07T21:17:05.702Z,18.00
2018-09-07T21:19:33.867Z,18.00
2018-09-07T21:22:02.062Z,18.00
2018-09-07T21:24:30.262Z,18.00
2018-09-07T21:26:58.469Z,18.00
2018-09-07T21:29:26.674Z,18.00
2018-09-07T21:31:54.873Z,18.10
2018-09-07T21:34:23.169Z,18.20
2018-09-07T21:36:51.353Z,18.20
2018-09-07T21:39:19.607Z,18.20
2018-09-07T21:41:47.874Z,18.30
2018-09-07T21:44:16.146Z,18.20
2018-09-07T21:46:44.417Z,18.20
2018-09-07T21:49:13.082Z,18.20
2018-09-07T21:51:41.356Z,18.20
2018-09-07T21:54:09.581Z,18.30
2018-09-07T21:56:37.885Z,18.30
2018-09-07T21:59:06.112Z,18.30
2018-09-07T22:01:34.314Z,18.40
2018-09-07T22:04:02.570Z,18.40
2018-09-07T22:06:30.840Z,18.40
2018-09-07T22:08:59.122Z,18.40
2018-09-07T22:11:27.319Z,18.40
2018-09-07T22:13:55.585Z,18.40
2018-09-07T22:16:23.846Z,18.50
2018-09-07T22:18:52.561Z,18.40
2018-09-07T22:21:20.834Z,18.40
2018-09-07T22:23:49.162Z,18.40
2018-09-07T22:26:17.482Z,18.40
2018-09-07T22:28:45.698Z,18.40
2018-09-07T22:31:13.909Z,18.40
2018-09-07T22:33:42.206Z,18.40
2018-09-07T22:36:10.458Z,18.40
2018-09-07T22:38:38.762Z,18.50
2018-09-07T22:41:07.025Z,18.50
2018-09-07T22:43:35.277Z,18.50
2018-09-07T22:46:03.562Z,18.50
2018-09-07T22:48:31.752Z,18.50
2018-09-07T22:51:00.038Z,18.40
2018-09-07T22:53:28.323Z,18.40
2018-09-07T22:55:56.562Z,18.30
2018-09-07T22:58:24.847Z,18.20
2018-09-07T23:00:53.065Z,18.10
2018-09-07T23:03:21.322Z,18.10
2018-09-07T23:05:52.537Z,18.10
2018-09-07T23:08:20.754Z,18.10
2018-09-07T23:10:48.985Z,18.00
2018-09-07T23:13:17.186Z,18.00
2018-09-07T23:15:45.438Z,17.90
2018-09-07T23:18:13.810Z,17.90
2018-09-07T23:20:41.989Z,17.90
2018-09-07T23:23:10.190Z,17.90
2018-09-07T23:25:38.446Z,17.90
2018-09-07T23:28:06.705Z,17.80
2018-09-07T23:30:34.926Z,17.70
2018-09-07T23:33:03.149Z,17.70
2018-09-07T23:35:31.543Z,17.70
2018-09-07T23:37:59.888Z,17.70
2018-09-07T23:40:28.097Z,17.70
2018-09-07T23:42:56.369Z,17.70
2018-09-07T23:45:24.635Z,17.70
2018-09-07T23:47:52.837Z,17.70
2018-09-07T23:50:21.140Z,17.70
2018-09-07T23:52:50.343Z,17.70
2018-09-07T23:55:18.569Z,17.80
2018-09-07T23:57:46.876Z,17.80
